sensor_id;sensor_type;location;lat;lon;timestamp;P1;durP1;ratioP1;P2;durP2;ratioP2
50900;SDS011;36879;51.416;6.678;2023-03-31T00:01:16;4.70;;;1.85;;
50900;SDS011;36879;51.416;6.678;2023-03-31T00:03:43;4.05;;;1.70;;
50900;SDS011;36879;51.416;6.678;2023-03-31T00:06:10;5.90;;;1.10;;
50900;SDS011;36879;51.416;6.678;2023-03-31T00:08:36;3.85;;;1.60;;
50900;SDS011;36879;51.416;6.678;2023-03-31T00:11:04;2.53;;;1.08;;
50900;SDS011;36879;51.416;6.678;2023-03-31T00:13:31;4.88;;;1.65;;
50900;SDS011;36879;51.416;6.678;2023-03-31T00:15:58;9.32;;;1.58;;
50900;SDS011;36879;51.416;6.678;2023-03-31T00:18:25;11.23;;;2.25;;
50900;SDS011;36879;51.416;6.678;2023-03-31T00:20:52;3.83;;;1.25;;
50900;SDS011;36879;51.416;6.678;2023-03-31T00:23:18;5.45;;;1.60;;
50900;SDS011;36879;51.416;6.678;2023-03-31T00:25:52;4.63;;;1.50;;
50900;SDS011;36879;51.416;6.678;2023-03-31T00:28:18;5.07;;;1.20;;
50900;SDS011;36879;51.416;6.678;2023-03-31T00:30:45;7.78;;;1.65;;
50900;SDS011;36879;51.416;6.678;2023-03-31T00:33:12;6.55;;;2.17;;
50900;SDS011;36879;51.416;6.678;2023-03-31T00:35:38;2.88;;;1.30;;
50900;SDS011;36879;51.416;6.678;2023-03-31T00:38:04;3.47;;;1.65;;
50900;SDS011;36879;51.416;6.678;2023-03-31T00:40:32;9.02;;;2.95;;
50900;SDS011;36879;51.416;6.678;2023-03-31T00:42:58;16.38;;;2.40;;
50900;SDS011;36879;51.416;6.678;2023-03-31T00:45:26;8.82;;;3.38;;
50900;SDS011;36879;51.416;6.678;2023-03-31T00:47:53;8.98;;;2.72;;
50900;SDS011;36879;51.416;6.678;2023-03-31T00:50:31;14.55;;;3.13;;
50900;SDS011;36879;51.416;6.678;2023-03-31T00:53:01;11.48;;;3.03;;
50900;SDS011;36879;51.416;6.678;2023-03-31T00:55:39;11.88;;;2.17;;
50900;SDS011;36879;51.416;6.678;2023-03-31T00:58:06;8.43;;;2.35;;
50900;SDS011;36879;51.416;6.678;2023-03-31T01:00:33;9.73;;;2.05;;
50900;SDS011;36879;51.416;6.678;2023-03-31T01:03:00;5.63;;;1.65;;
50900;SDS011;36879;51.416;6.678;2023-03-31T01:08:06;8.95;;;2.50;;
50900;SDS011;36879;51.416;6.678;2023-03-31T01:10:32;8.38;;;1.77;;
50900;SDS011;36879;51.416;6.678;2023-03-31T01:13:02;9.02;;;1.80;;
50900;SDS011;36879;51.416;6.678;2023-03-31T01:15:28;8.95;;;2.40;;
50900;SDS011;36879;51.416;6.678;2023-03-31T01:17:54;8.55;;;2.05;;
50900;SDS011;36879;51.416;6.678;2023-03-31T01:20:35;6.25;;;2.03;;
50900;SDS011;36879;51.416;6.678;2023-03-31T01:30:44;5.25;;;1.45;;
50900;SDS011;36879;51.416;6.678;2023-03-31T01:41:04;8.45;;;2.55;;
50900;SDS011;36879;51.416;6.678;2023-03-31T01:43:39;10.93;;;3.00;;
50900;SDS011;36879;51.416;6.678;2023-03-31T01:48:58;7.18;;;3.28;;
50900;SDS011;36879;51.416;6.678;2023-03-31T01:56:38;10.73;;;2.22;;
50900;SDS011;36879;51.416;6.678;2023-03-31T02:01:36;6.47;;;2.30;;
50900;SDS011;36879;51.416;6.678;2023-03-31T02:04:11;13.38;;;3.40;;
50900;SDS011;36879;51.416;6.678;2023-03-31T02:06:39;14.48;;;4.15;;
50900;SDS011;36879;51.416;6.678;2023-03-31T02:09:11;12.32;;;2.72;;
50900;SDS011;36879;51.416;6.678;2023-03-31T02:11:38;11.35;;;2.97;;
50900;SDS011;36879;51.416;6.678;2023-03-31T02:14:07;12.68;;;3.38;;
50900;SDS011;36879;51.416;6.678;2023-03-31T02:16:34;9.35;;;3.05;;
50900;SDS011;36879;51.416;6.678;2023-03-31T02:19:02;16.42;;;3.28;;
50900;SDS011;36879;51.416;6.678;2023-03-31T02:21:30;10.18;;;3.22;;
50900;SDS011;36879;51.416;6.678;2023-03-31T02:23:58;8.82;;;3.35;;
50900;SDS011;36879;51.416;6.678;2023-03-31T02:26:26;10.93;;;4.10;;
50900;SDS011;36879;51.416;6.678;2023-03-31T02:28:53;12.32;;;4.43;;
50900;SDS011;36879;51.416;6.678;2023-03-31T02:33:48;23.05;;;5.22;;
50900;SDS011;36879;51.416;6.678;2023-03-31T02:36:15;15.40;;;4.43;;
50900;SDS011;36879;51.416;6.678;2023-03-31T02:38:49;16.55;;;5.00;;
50900;SDS011;36879;51.416;6.678;2023-03-31T02:41:16;18.17;;;4.70;;
50900;SDS011;36879;51.416;6.678;2023-03-31T02:43:42;18.75;;;4.70;;
50900;SDS011;36879;51.416;6.678;2023-03-31T02:46:08;17.38;;;5.03;;
50900;SDS011;36879;51.416;6.678;2023-03-31T02:48:40;20.13;;;4.85;;
50900;SDS011;36879;51.416;6.678;2023-03-31T02:58:34;13.18;;;3.05;;
50900;SDS011;36879;51.416;6.678;2023-03-31T03:03:34;13.77;;;4.70;;
50900;SDS011;36879;51.416;6.678;2023-03-31T03:08:55;12.13;;;3.95;;
50900;SDS011;36879;51.416;6.678;2023-03-31T03:11:45;13.32;;;4.82;;
50900;SDS011;36879;51.416;6.678;2023-03-31T03:14:33;13.35;;;3.72;;
50900;SDS011;36879;51.416;6.678;2023-03-31T03:17:09;10.18;;;4.32;;
50900;SDS011;36879;51.416;6.678;2023-03-31T03:19:36;16.35;;;4.18;;
50900;SDS011;36879;51.416;6.678;2023-03-31T03:22:02;12.73;;;4.68;;
50900;SDS011;36879;51.416;6.678;2023-03-31T03:24:28;10.98;;;3.08;;
50900;SDS011;36879;51.416;6.678;2023-03-31T03:26:58;13.32;;;3.28;;
50900;SDS011;36879;51.416;6.678;2023-03-31T03:29:24;22.77;;;5.68;;
50900;SDS011;36879;51.416;6.678;2023-03-31T03:31:51;16.85;;;5.15;;
50900;SDS011;36879;51.416;6.678;2023-03-31T03:34:17;20.95;;;4.85;;
50900;SDS011;36879;51.416;6.678;2023-03-31T03:36:44;16.80;;;3.95;;
50900;SDS011;36879;51.416;6.678;2023-03-31T03:39:10;13.05;;;4.53;;
50900;SDS011;36879;51.416;6.678;2023-03-31T03:41:36;12.75;;;4.00;;
50900;SDS011;36879;51.416;6.678;2023-03-31T03:44:03;15.98;;;4.63;;
50900;SDS011;36879;51.416;6.678;2023-03-31T03:46:29;26.63;;;4.93;;
50900;SDS011;36879;51.416;6.678;2023-03-31T03:48:55;18.58;;;5.15;;
50900;SDS011;36879;51.416;6.678;2023-03-31T03:51:21;18.73;;;5.70;;
50900;SDS011;36879;51.416;6.678;2023-03-31T03:53:47;22.27;;;4.93;;
50900;SDS011;36879;51.416;6.678;2023-03-31T03:56:13;18.65;;;5.35;;
50900;SDS011;36879;51.416;6.678;2023-03-31T03:58:39;14.02;;;6.45;;
50900;SDS011;36879;51.416;6.678;2023-03-31T04:01:05;22.20;;;5.95;;
50900;SDS011;36879;51.416;6.678;2023-03-31T04:03:31;20.67;;;5.85;;
50900;SDS011;36879;51.416;6.678;2023-03-31T04:05:57;15.40;;;5.03;;
50900;SDS011;36879;51.416;6.678;2023-03-31T04:08:23;14.05;;;5.07;;
50900;SDS011;36879;51.416;6.678;2023-03-31T04:10:49;15.57;;;5.57;;
50900;SDS011;36879;51.416;6.678;2023-03-31T04:13:16;18.38;;;6.25;;
50900;SDS011;36879;51.416;6.678;2023-03-31T04:15:42;15.75;;;6.53;;
50900;SDS011;36879;51.416;6.678;2023-03-31T04:18:09;22.75;;;5.90;;
50900;SDS011;36879;51.416;6.678;2023-03-31T04:20:42;12.10;;;4.97;;
50900;SDS011;36879;51.416;6.678;2023-03-31T04:23:09;19.55;;;6.47;;
50900;SDS011;36879;51.416;6.678;2023-03-31T04:25:35;14.77;;;4.60;;
50900;SDS011;36879;51.416;6.678;2023-03-31T04:28:03;17.38;;;5.97;;
50900;SDS011;36879;51.416;6.678;2023-03-31T04:30:31;18.08;;;5.38;;
50900;SDS011;36879;51.416;6.678;2023-03-31T04:32:57;18.63;;;7.28;;
50900;SDS011;36879;51.416;6.678;2023-03-31T04:35:24;10.48;;;5.45;;
50900;SDS011;36879;51.416;6.678;2023-03-31T04:37:51;16.65;;;5.05;;
50900;SDS011;36879;51.416;6.678;2023-03-31T04:40:23;11.68;;;3.75;;
50900;SDS011;36879;51.416;6.678;2023-03-31T04:42:49;12.90;;;3.58;;
50900;SDS011;36879;51.416;6.678;2023-03-31T04:45:15;16.58;;;5.18;;
50900;SDS011;36879;51.416;6.678;2023-03-31T04:47:41;10.85;;;3.55;;
50900;SDS011;36879;51.416;6.678;2023-03-31T04:50:08;13.35;;;3.85;;
50900;SDS011;36879;51.416;6.678;2023-03-31T04:52:37;9.20;;;3.20;;
50900;SDS011;36879;51.416;6.678;2023-03-31T04:55:04;11.68;;;3.53;;
50900;SDS011;36879;51.416;6.678;2023-03-31T04:57:30;9.13;;;2.88;;
50900;SDS011;36879;51.416;6.678;2023-03-31T04:59:56;10.30;;;3.92;;
50900;SDS011;36879;51.416;6.678;2023-03-31T05:02:22;10.05;;;3.22;;
50900;SDS011;36879;51.416;6.678;2023-03-31T05:04:51;16.30;;;2.97;;
50900;SDS011;36879;51.416;6.678;2023-03-31T05:07:17;7.82;;;3.30;;
50900;SDS011;36879;51.416;6.678;2023-03-31T05:09:43;11.38;;;3.13;;
50900;SDS011;36879;51.416;6.678;2023-03-31T05:12:10;7.72;;;4.15;;
50900;SDS011;36879;51.416;6.678;2023-03-31T05:14:36;10.82;;;4.03;;
50900;SDS011;36879;51.416;6.678;2023-03-31T05:17:02;9.68;;;3.00;;
50900;SDS011;36879;51.416;6.678;2023-03-31T05:19:28;13.68;;;5.13;;
50900;SDS011;36879;51.416;6.678;2023-03-31T05:21:54;16.35;;;5.88;;
50900;SDS011;36879;51.416;6.678;2023-03-31T05:24:20;15.80;;;4.95;;
50900;SDS011;36879;51.416;6.678;2023-03-31T05:26:46;9.30;;;3.60;;
50900;SDS011;36879;51.416;6.678;2023-03-31T05:29:17;12.45;;;3.22;;
50900;SDS011;36879;51.416;6.678;2023-03-31T05:31:43;11.70;;;2.50;;
50900;SDS011;36879;51.416;6.678;2023-03-31T05:34:09;14.50;;;3.33;;
50900;SDS011;36879;51.416;6.678;2023-03-31T05:36:35;7.95;;;2.08;;
50900;SDS011;36879;51.416;6.678;2023-03-31T05:39:02;5.47;;;2.28;;
50900;SDS011;36879;51.416;6.678;2023-03-31T05:41:28;10.43;;;2.20;;
50900;SDS011;36879;51.416;6.678;2023-03-31T05:43:54;11.77;;;2.20;;
50900;SDS011;36879;51.416;6.678;2023-03-31T05:46:20;8.45;;;2.67;;
50900;SDS011;36879;51.416;6.678;2023-03-31T05:48:46;6.75;;;2.13;;
50900;SDS011;36879;51.416;6.678;2023-03-31T05:51:12;4.63;;;2.10;;
50900;SDS011;36879;51.416;6.678;2023-03-31T05:53:38;6.07;;;1.75;;
50900;SDS011;36879;51.416;6.678;2023-03-31T05:56:06;6.72;;;2.00;;
50900;SDS011;36879;51.416;6.678;2023-03-31T05:58:35;6.57;;;1.95;;
50900;SDS011;36879;51.416;6.678;2023-03-31T06:03:31;4.00;;;1.58;;
50900;SDS011;36879;51.416;6.678;2023-03-31T06:05:57;7.70;;;2.13;;
50900;SDS011;36879;51.416;6.678;2023-03-31T06:08:23;5.88;;;1.85;;
50900;SDS011;36879;51.416;6.678;2023-03-31T06:10:49;5.20;;;1.92;;
50900;SDS011;36879;51.416;6.678;2023-03-31T06:13:15;6.05;;;2.33;;
50900;SDS011;36879;51.416;6.678;2023-03-31T06:15:41;4.82;;;2.42;;
50900;SDS011;36879;51.416;6.678;2023-03-31T06:18:07;5.75;;;2.80;;
50900;SDS011;36879;51.416;6.678;2023-03-31T06:20:35;4.72;;;2.33;;
50900;SDS011;36879;51.416;6.678;2023-03-31T06:23:01;16.25;;;2.78;;
50900;SDS011;36879;51.416;6.678;2023-03-31T06:25:27;10.13;;;2.70;;
50900;SDS011;36879;51.416;6.678;2023-03-31T06:27:53;8.35;;;2.95;;
50900;SDS011;36879;51.416;6.678;2023-03-31T06:30:18;8.05;;;3.40;;
50900;SDS011;36879;51.416;6.678;2023-03-31T06:32:45;7.38;;;2.97;;
50900;SDS011;36879;51.416;6.678;2023-03-31T06:35:11;11.48;;;4.03;;
50900;SDS011;36879;51.416;6.678;2023-03-31T06:37:37;7.82;;;3.38;;
50900;SDS011;36879;51.416;6.678;2023-03-31T06:40:03;8.35;;;3.05;;
50900;SDS011;36879;51.416;6.678;2023-03-31T06:42:29;7.60;;;3.20;;
50900;SDS011;36879;51.416;6.678;2023-03-31T06:44:55;11.32;;;3.63;;
50900;SDS011;36879;51.416;6.678;2023-03-31T06:47:21;10.82;;;3.75;;
50900;SDS011;36879;51.416;6.678;2023-03-31T06:49:47;16.60;;;5.13;;
50900;SDS011;36879;51.416;6.678;2023-03-31T06:52:13;10.88;;;5.05;;
50900;SDS011;36879;51.416;6.678;2023-03-31T06:54:39;14.25;;;5.07;;
50900;SDS011;36879;51.416;6.678;2023-03-31T06:57:06;18.40;;;4.93;;
50900;SDS011;36879;51.416;6.678;2023-03-31T06:59:32;15.13;;;4.35;;
50900;SDS011;36879;51.416;6.678;2023-03-31T07:01:58;12.80;;;3.58;;
50900;SDS011;36879;51.416;6.678;2023-03-31T07:04:24;9.55;;;3.92;;
50900;SDS011;36879;51.416;6.678;2023-03-31T07:06:50;9.35;;;3.97;;
50900;SDS011;36879;51.416;6.678;2023-03-31T07:09:16;6.13;;;2.35;;
50900;SDS011;36879;51.416;6.678;2023-03-31T07:11:42;9.23;;;2.28;;
50900;SDS011;36879;51.416;6.678;2023-03-31T07:14:08;10.18;;;3.60;;
50900;SDS011;36879;51.416;6.678;2023-03-31T07:16:34;7.75;;;2.75;;
50900;SDS011;36879;51.416;6.678;2023-03-31T07:19:00;11.32;;;2.60;;
50900;SDS011;36879;51.416;6.678;2023-03-31T07:21:28;6.53;;;3.22;;
50900;SDS011;36879;51.416;6.678;2023-03-31T07:23:54;15.43;;;3.17;;
50900;SDS011;36879;51.416;6.678;2023-03-31T07:26:20;11.75;;;3.45;;
50900;SDS011;36879;51.416;6.678;2023-03-31T07:28:47;10.82;;;4.32;;
50900;SDS011;36879;51.416;6.678;2023-03-31T07:31:13;15.30;;;2.90;;
50900;SDS011;36879;51.416;6.678;2023-03-31T07:33:40;8.52;;;4.10;;
50900;SDS011;36879;51.416;6.678;2023-03-31T07:36:06;10.65;;;3.78;;
50900;SDS011;36879;51.416;6.678;2023-03-31T07:38:32;12.23;;;2.67;;
50900;SDS011;36879;51.416;6.678;2023-03-31T07:40:59;13.65;;;3.97;;
50900;SDS011;36879;51.416;6.678;2023-03-31T07:43:25;10.55;;;2.72;;
50900;SDS011;36879;51.416;6.678;2023-03-31T07:45:51;7.93;;;2.65;;
50900;SDS011;36879;51.416;6.678;2023-03-31T07:48:17;11.40;;;3.03;;
50900;SDS011;36879;51.416;6.678;2023-03-31T07:50:43;7.35;;;2.53;;
50900;SDS011;36879;51.416;6.678;2023-03-31T07:53:09;10.25;;;2.85;;
50900;SDS011;36879;51.416;6.678;2023-03-31T07:55:35;5.93;;;2.03;;
50900;SDS011;36879;51.416;6.678;2023-03-31T07:58:01;15.38;;;3.03;;
50900;SDS011;36879;51.416;6.678;2023-03-31T08:00:27;5.95;;;2.20;;
50900;SDS011;36879;51.416;6.678;2023-03-31T08:02:53;8.55;;;2.63;;
50900;SDS011;36879;51.416;6.678;2023-03-31T08:05:19;7.82;;;2.42;;
50900;SDS011;36879;51.416;6.678;2023-03-31T08:07:46;10.35;;;3.10;;
50900;SDS011;36879;51.416;6.678;2023-03-31T08:10:20;12.25;;;2.95;;
50900;SDS011;36879;51.416;6.678;2023-03-31T08:12:46;8.68;;;2.75;;
50900;SDS011;36879;51.416;6.678;2023-03-31T08:15:12;9.55;;;3.40;;
50900;SDS011;36879;51.416;6.678;2023-03-31T08:17:39;9.48;;;3.15;;
50900;SDS011;36879;51.416;6.678;2023-03-31T08:20:05;8.43;;;3.28;;
50900;SDS011;36879;51.416;6.678;2023-03-31T08:22:31;11.73;;;3.28;;
50900;SDS011;36879;51.416;6.678;2023-03-31T08:24:57;11.73;;;3.80;;
50900;SDS011;36879;51.416;6.678;2023-03-31T08:27:23;6.70;;;2.67;;
50900;SDS011;36879;51.416;6.678;2023-03-31T08:29:50;12.85;;;4.47;;
50900;SDS011;36879;51.416;6.678;2023-03-31T08:32:16;10.55;;;3.75;;
50900;SDS011;36879;51.416;6.678;2023-03-31T08:34:42;10.60;;;2.78;;
50900;SDS011;36879;51.416;6.678;2023-03-31T08:37:09;15.63;;;3.08;;
50900;SDS011;36879;51.416;6.678;2023-03-31T08:39:35;15.25;;;3.42;;
50900;SDS011;36879;51.416;6.678;2023-03-31T08:42:02;13.68;;;3.42;;
50900;SDS011;36879;51.416;6.678;2023-03-31T08:44:41;5.25;;;2.22;;
50900;SDS011;36879;51.416;6.678;2023-03-31T08:47:14;8.70;;;3.30;;
50900;SDS011;36879;51.416;6.678;2023-03-31T08:49:47;7.80;;;3.10;;
50900;SDS011;36879;51.416;6.678;2023-03-31T08:52:14;9.50;;;2.60;;
50900;SDS011;36879;51.416;6.678;2023-03-31T08:55:00;7.28;;;2.70;;
50900;SDS011;36879;51.416;6.678;2023-03-31T08:57:34;17.10;;;3.50;;
50900;SDS011;36879;51.416;6.678;2023-03-31T09:00:02;15.80;;;3.92;;
50900;SDS011;36879;51.416;6.678;2023-03-31T09:15:25;17.45;;;4.53;;
50900;SDS011;36879;51.416;6.678;2023-03-31T09:17:51;17.00;;;4.60;;
50900;SDS011;36879;51.416;6.678;2023-03-31T09:20:21;9.85;;;3.22;;
50900;SDS011;36879;51.416;6.678;2023-03-31T09:22:48;19.25;;;9.45;;
50900;SDS011;36879;51.416;6.678;2023-03-31T09:25:25;23.23;;;9.73;;
50900;SDS011;36879;51.416;6.678;2023-03-31T09:27:52;18.83;;;4.03;;
50900;SDS011;36879;51.416;6.678;2023-03-31T09:30:20;18.95;;;3.10;;
50900;SDS011;36879;51.416;6.678;2023-03-31T09:32:50;14.45;;;3.97;;
50900;SDS011;36879;51.416;6.678;2023-03-31T09:35:18;23.38;;;9.20;;
50900;SDS011;36879;51.416;6.678;2023-03-31T09:37:49;14.02;;;3.92;;
50900;SDS011;36879;51.416;6.678;2023-03-31T09:40:18;18.75;;;7.15;;
50900;SDS011;36879;51.416;6.678;2023-03-31T09:42:46;13.30;;;5.20;;
50900;SDS011;36879;51.416;6.678;2023-03-31T09:45:13;32.33;;;7.43;;
50900;SDS011;36879;51.416;6.678;2023-03-31T09:47:41;18.08;;;4.65;;
50900;SDS011;36879;51.416;6.678;2023-03-31T09:50:08;23.00;;;7.00;;
50900;SDS011;36879;51.416;6.678;2023-03-31T09:52:36;16.50;;;5.90;;
50900;SDS011;36879;51.416;6.678;2023-03-31T09:55:05;25.63;;;8.93;;
50900;SDS011;36879;51.416;6.678;2023-03-31T09:57:35;21.08;;;4.72;;
50900;SDS011;36879;51.416;6.678;2023-03-31T10:02:40;11.77;;;3.20;;
50900;SDS011;36879;51.416;6.678;2023-03-31T10:05:17;6.63;;;2.15;;
50900;SDS011;36879;51.416;6.678;2023-03-31T10:07:43;15.05;;;2.80;;
50900;SDS011;36879;51.416;6.678;2023-03-31T10:10:09;13.75;;;2.42;;
50900;SDS011;36879;51.416;6.678;2023-03-31T10:12:42;11.32;;;2.50;;
50900;SDS011;36879;51.416;6.678;2023-03-31T10:15:19;6.32;;;2.13;;
50900;SDS011;36879;51.416;6.678;2023-03-31T10:17:46;13.10;;;2.38;;
50900;SDS011;36879;51.416;6.678;2023-03-31T10:20:20;15.32;;;2.92;;
50900;SDS011;36879;51.416;6.678;2023-03-31T10:22:46;10.93;;;2.28;;
50900;SDS011;36879;51.416;6.678;2023-03-31T10:25:16;8.70;;;2.90;;
50900;SDS011;36879;51.416;6.678;2023-03-31T10:27:44;12.27;;;2.72;;
50900;SDS011;36879;51.416;6.678;2023-03-31T10:30:16;8.50;;;3.33;;
50900;SDS011;36879;51.416;6.678;2023-03-31T10:32:43;10.10;;;3.42;;
50900;SDS011;36879;51.416;6.678;2023-03-31T10:37:54;14.38;;;3.45;;
50900;SDS011;36879;51.416;6.678;2023-03-31T10:40:25;10.98;;;3.63;;
50900;SDS011;36879;51.416;6.678;2023-03-31T10:43:08;19.35;;;5.70;;
50900;SDS011;36879;51.416;6.678;2023-03-31T10:45:40;24.15;;;8.80;;
50900;SDS011;36879;51.416;6.678;2023-03-31T10:48:15;17.42;;;2.85;;
50900;SDS011;36879;51.416;6.678;2023-03-31T10:50:42;15.13;;;4.07;;
50900;SDS011;36879;51.416;6.678;2023-03-31T10:53:12;10.32;;;3.65;;
50900;SDS011;36879;51.416;6.678;2023-03-31T10:55:45;17.52;;;4.20;;
50900;SDS011;36879;51.416;6.678;2023-03-31T11:03:20;5.25;;;1.65;;
50900;SDS011;36879;51.416;6.678;2023-03-31T11:05:51;8.00;;;2.10;;
50900;SDS011;36879;51.416;6.678;2023-03-31T11:08:41;8.95;;;2.40;;
50900;SDS011;36879;51.416;6.678;2023-03-31T11:11:13;5.72;;;1.63;;
50900;SDS011;36879;51.416;6.678;2023-03-31T11:18:40;4.50;;;1.80;;
50900;SDS011;36879;51.416;6.678;2023-03-31T11:26:29;6.28;;;1.50;;
50900;SDS011;36879;51.416;6.678;2023-03-31T11:28:57;8.60;;;1.92;;
50900;SDS011;36879;51.416;6.678;2023-03-31T11:31:42;8.30;;;3.10;;
50900;SDS011;36879;51.416;6.678;2023-03-31T11:39:11;3.47;;;1.33;;
50900;SDS011;36879;51.416;6.678;2023-03-31T11:41:40;3.80;;;1.25;;
50900;SDS011;36879;51.416;6.678;2023-03-31T11:44:09;5.50;;;1.70;;
50900;SDS011;36879;51.416;6.678;2023-03-31T11:46:40;5.70;;;1.58;;
50900;SDS011;36879;51.416;6.678;2023-03-31T11:49:14;6.07;;;1.50;;
50900;SDS011;36879;51.416;6.678;2023-03-31T11:54:08;7.65;;;1.70;;
50900;SDS011;36879;51.416;6.678;2023-03-31T11:56:40;2.80;;;1.30;;
50900;SDS011;36879;51.416;6.678;2023-03-31T11:59:08;7.95;;;1.40;;
50900;SDS011;36879;51.416;6.678;2023-03-31T12:04:37;10.70;;;2.38;;
50900;SDS011;36879;51.416;6.678;2023-03-31T12:07:11;8.85;;;1.90;;
50900;SDS011;36879;51.416;6.678;2023-03-31T12:09:51;6.38;;;1.98;;
50900;SDS011;36879;51.416;6.678;2023-03-31T12:12:21;8.52;;;1.33;;
50900;SDS011;36879;51.416;6.678;2023-03-31T12:14:52;6.70;;;2.30;;
50900;SDS011;36879;51.416;6.678;2023-03-31T12:17:22;8.13;;;2.13;;
50900;SDS011;36879;51.416;6.678;2023-03-31T12:19:51;13.85;;;4.00;;
50900;SDS011;36879;51.416;6.678;2023-03-31T12:24:43;14.18;;;3.80;;
50900;SDS011;36879;51.416;6.678;2023-03-31T12:32:29;11.68;;;4.22;;
50900;SDS011;36879;51.416;6.678;2023-03-31T12:37:44;12.48;;;4.30;;
50900;SDS011;36879;51.416;6.678;2023-03-31T12:42:44;9.30;;;3.35;;
50900;SDS011;36879;51.416;6.678;2023-03-31T12:45:28;9.88;;;2.35;;
50900;SDS011;36879;51.416;6.678;2023-03-31T12:55:42;7.15;;;2.92;;
50900;SDS011;36879;51.416;6.678;2023-03-31T12:58:54;8.65;;;1.95;;
50900;SDS011;36879;51.416;6.678;2023-03-31T13:01:08;6.03;;;2.15;;
50900;SDS011;36879;51.416;6.678;2023-03-31T13:08:58;8.65;;;2.60;;
50900;SDS011;36879;51.416;6.678;2023-03-31T13:16:41;5.72;;;1.30;;
50900;SDS011;36879;51.416;6.678;2023-03-31T13:19:11;11.10;;;1.95;;
50900;SDS011;36879;51.416;6.678;2023-03-31T13:21:57;8.82;;;2.00;;
50900;SDS011;36879;51.416;6.678;2023-03-31T13:24:23;3.80;;;1.30;;
50900;SDS011;36879;51.416;6.678;2023-03-31T13:26:50;8.10;;;1.80;;
50900;SDS011;36879;51.416;6.678;2023-03-31T13:29:18;3.92;;;1.30;;
50900;SDS011;36879;51.416;6.678;2023-03-31T13:34:30;6.88;;;1.55;;
50900;SDS011;36879;51.416;6.678;2023-03-31T13:39:33;2.35;;;0.90;;
50900;SDS011;36879;51.416;6.678;2023-03-31T13:42:07;7.13;;;1.27;;
50900;SDS011;36879;51.416;6.678;2023-03-31T13:45:20;6.00;;;1.00;;
50900;SDS011;36879;51.416;6.678;2023-03-31T13:47:27;7.93;;;1.33;;
50900;SDS011;36879;51.416;6.678;2023-03-31T13:50:18;6.90;;;1.48;;
50900;SDS011;36879;51.416;6.678;2023-03-31T13:58:13;3.80;;;1.33;;
50900;SDS011;36879;51.416;6.678;2023-03-31T14:05:44;8.35;;;1.45;;
50900;SDS011;36879;51.416;6.678;2023-03-31T14:08:19;3.30;;;1.00;;
50900;SDS011;36879;51.416;6.678;2023-03-31T14:10:49;4.75;;;1.63;;
50900;SDS011;36879;51.416;6.678;2023-03-31T14:13:17;5.32;;;1.10;;
50900;SDS011;36879;51.416;6.678;2023-03-31T14:15:48;5.53;;;1.35;;
50900;SDS011;36879;51.416;6.678;2023-03-31T14:18:18;7.18;;;1.50;;
50900;SDS011;36879;51.416;6.678;2023-03-31T14:34:02;5.93;;;1.30;;
50900;SDS011;36879;51.416;6.678;2023-03-31T14:36:47;8.93;;;1.20;;
50900;SDS011;36879;51.416;6.678;2023-03-31T14:39:16;7.88;;;1.50;;
50900;SDS011;36879;51.416;6.678;2023-03-31T14:41:45;7.95;;;1.40;;
50900;SDS011;36879;51.416;6.678;2023-03-31T14:44:14;6.07;;;2.05;;
50900;SDS011;36879;51.416;6.678;2023-03-31T14:46:43;7.18;;;1.70;;
50900;SDS011;36879;51.416;6.678;2023-03-31T14:51:58;13.00;;;3.35;;
50900;SDS011;36879;51.416;6.678;2023-03-31T14:54:25;9.07;;;2.65;;
50900;SDS011;36879;51.416;6.678;2023-03-31T14:56:55;6.25;;;1.73;;
50900;SDS011;36879;51.416;6.678;2023-03-31T14:59:27;6.03;;;2.03;;
50900;SDS011;36879;51.416;6.678;2023-03-31T15:01:53;4.82;;;1.73;;
50900;SDS011;36879;51.416;6.678;2023-03-31T15:04:22;9.98;;;2.10;;
50900;SDS011;36879;51.416;6.678;2023-03-31T15:06:49;7.13;;;2.05;;
50900;SDS011;36879;51.416;6.678;2023-03-31T15:09:26;4.30;;;1.33;;
50900;SDS011;36879;51.416;6.678;2023-03-31T15:11:56;6.13;;;1.40;;
50900;SDS011;36879;51.416;6.678;2023-03-31T15:14:27;3.40;;;1.27;;
50900;SDS011;36879;51.416;6.678;2023-03-31T15:16:53;5.35;;;1.55;;
50900;SDS011;36879;51.416;6.678;2023-03-31T15:19:20;6.70;;;2.20;;
50900;SDS011;36879;51.416;6.678;2023-03-31T15:21:54;7.97;;;1.63;;
50900;SDS011;36879;51.416;6.678;2023-03-31T15:24:21;4.45;;;1.10;;
50900;SDS011;36879;51.416;6.678;2023-03-31T15:26:56;7.75;;;1.20;;
50900;SDS011;36879;51.416;6.678;2023-03-31T15:32:25;4.65;;;0.90;;
50900;SDS011;36879;51.416;6.678;2023-03-31T15:34:51;3.58;;;0.93;;
50900;SDS011;36879;51.416;6.678;2023-03-31T15:37:23;4.75;;;0.93;;
50900;SDS011;36879;51.416;6.678;2023-03-31T15:39:51;2.88;;;0.88;;
50900;SDS011;36879;51.416;6.678;2023-03-31T15:42:20;4.57;;;1.67;;
50900;SDS011;36879;51.416;6.678;2023-03-31T15:44:46;4.85;;;1.45;;
50900;SDS011;36879;51.416;6.678;2023-03-31T15:47:16;3.55;;;0.88;;
50900;SDS011;36879;51.416;6.678;2023-03-31T15:49:52;2.40;;;0.77;;
50900;SDS011;36879;51.416;6.678;2023-03-31T15:52:20;4.80;;;1.02;;
50900;SDS011;36879;51.416;6.678;2023-03-31T15:54:46;7.22;;;1.00;;
50900;SDS011;36879;51.416;6.678;2023-03-31T15:57:13;3.17;;;1.00;;
50900;SDS011;36879;51.416;6.678;2023-03-31T16:02:10;6.97;;;1.00;;
50900;SDS011;36879;51.416;6.678;2023-03-31T16:04:38;3.47;;;0.95;;
50900;SDS011;36879;51.416;6.678;2023-03-31T16:07:05;2.92;;;0.73;;
50900;SDS011;36879;51.416;6.678;2023-03-31T16:09:51;3.05;;;1.23;;
50900;SDS011;36879;51.416;6.678;2023-03-31T16:12:20;3.10;;;0.80;;
50900;SDS011;36879;51.416;6.678;2023-03-31T16:15:03;3.20;;;0.90;;
50900;SDS011;36879;51.416;6.678;2023-03-31T16:17:32;3.15;;;0.80;;
50900;SDS011;36879;51.416;6.678;2023-03-31T16:20:00;3.30;;;0.60;;
50900;SDS011;36879;51.416;6.678;2023-03-31T16:22:35;2.05;;;0.88;;
50900;SDS011;36879;51.416;6.678;2023-03-31T16:25:07;3.33;;;0.93;;
50900;SDS011;36879;51.416;6.678;2023-03-31T16:27:36;4.32;;;1.00;;
50900;SDS011;36879;51.416;6.678;2023-03-31T16:30:11;5.78;;;1.73;;
50900;SDS011;36879;51.416;6.678;2023-03-31T16:32:37;2.97;;;0.82;;
50900;SDS011;36879;51.416;6.678;2023-03-31T16:35:03;3.17;;;0.93;;
50900;SDS011;36879;51.416;6.678;2023-03-31T16:37:29;5.60;;;1.42;;
50900;SDS011;36879;51.416;6.678;2023-03-31T16:39:56;31.95;;;11.23;;
50900;SDS011;36879;51.416;6.678;2023-03-31T16:42:22;8.35;;;2.70;;
50900;SDS011;36879;51.416;6.678;2023-03-31T16:44:48;8.45;;;2.95;;
50900;SDS011;36879;51.416;6.678;2023-03-31T16:47:14;15.15;;;5.20;;
50900;SDS011;36879;51.416;6.678;2023-03-31T16:49:40;4.65;;;2.58;;
50900;SDS011;36879;51.416;6.678;2023-03-31T16:52:06;14.55;;;6.85;;
50900;SDS011;36879;51.416;6.678;2023-03-31T16:54:36;11.57;;;5.10;;
50900;SDS011;36879;51.416;6.678;2023-03-31T16:57:02;13.63;;;4.03;;
50900;SDS011;36879;51.416;6.678;2023-03-31T16:59:28;8.32;;;3.20;;
50900;SDS011;36879;51.416;6.678;2023-03-31T17:01:54;8.40;;;2.92;;
50900;SDS011;36879;51.416;6.678;2023-03-31T17:04:20;4.50;;;1.73;;
50900;SDS011;36879;51.416;6.678;2023-03-31T17:06:47;6.50;;;2.10;;
50900;SDS011;36879;51.416;6.678;2023-03-31T17:09:13;2.35;;;1.40;;
50900;SDS011;36879;51.416;6.678;2023-03-31T17:11:39;3.97;;;1.45;;
50900;SDS011;36879;51.416;6.678;2023-03-31T17:14:05;5.07;;;2.00;;
50900;SDS011;36879;51.416;6.678;2023-03-31T17:16:31;6.85;;;1.90;;
50900;SDS011;36879;51.416;6.678;2023-03-31T17:18:57;3.65;;;1.55;;
50900;SDS011;36879;51.416;6.678;2023-03-31T17:21:23;6.40;;;1.30;;
50900;SDS011;36879;51.416;6.678;2023-03-31T17:23:50;3.50;;;1.10;;
50900;SDS011;36879;51.416;6.678;2023-03-31T17:26:16;4.97;;;1.40;;
50900;SDS011;36879;51.416;6.678;2023-03-31T17:28:42;12.13;;;4.35;;